F/V Sextant — FVNU — position and weather

sailwx.info

Track history (hours):
 
Tides and Currents Weather Stations Pressure Air Temp Water Temp Dewpoint Dewpoint Depression Visibility Wind Speed Wind Dir Waves Ship Positions

F/V Sextant

Last reported at 2018-Feb-21 10:01 UTC. Time now 2018-Feb-22 02:50 UTC.
Position N 49°32' W 000°48'.

Length 15 m; draft 3 m.

Type: Fishing. MMSI: 228919000.

Date/timePositionNaut miles runAvg speedWind from/ knotsBaromVisibWave heightAir tempDewpointWater temp
2018-Feb-21 10:01N 49°32' W 000°48'0 4.6
2018-Feb-21 10:00N 49°32' W 000°48'2 3.2
2018-Feb-21 09:29N 49°32' W 000°45'2 3.3
2018-Feb-21 09:00N 49°33' W 000°43'1 2.2
2018-Feb-21 08:30N 49°33' W 000°41'1 1.5
2018-Feb-21 08:00N 49°32' W 000°42'1 1.4
2018-Feb-21 07:30N 49°33' W 000°41'0 0.7
2018-Feb-21 07:00N 49°33' W 000°42'0 0.5
2018-Feb-21 06:30N 49°33' W 000°41'0 0.9
2018-Feb-21 06:01N 49°33' W 000°41'1 2.3
2018-Feb-21 05:30N 49°33' W 000°43'1 2.3
2018-Feb-21 05:00N 49°33' W 000°41'2 3.2
2018-Feb-21 04:31N 49°33' W 000°43'3 0.2
2018-Feb-20 09:55N 49°33' W 000°48'2 5.0
2018-Feb-20 09:31N 49°32' W 000°45'2 3.2
2018-Feb-20 09:00N 49°32' W 000°42'1 2.3
2018-Feb-20 08:31N 49°33' W 000°40'1 1.2
2018-Feb-20 08:00N 49°32' W 000°41'1 1.3
2018-Feb-20 07:30N 49°33' W 000°42'1 2.3
2018-Feb-20 07:00N 49°33' W 000°40'1 1.3
2018-Feb-20 06:30N 49°33' W 000°41'0 0.4
2018-Feb-20 06:00N 49°33' W 000°41'0 0.4
2018-Feb-20 05:30N 49°33' W 000°41'0 0.8
2018-Feb-20 04:59N 49°32' W 000°41'1 1.4
2018-Feb-20 04:30N 49°33' W 000°42'0 0.7
2018-Feb-20 04:00N 49°33' W 000°41'2 4.4
2018-Feb-20 03:30N 49°33' W 000°45'2 0.1
2018-Feb-19 09:02N 49°33' W 000°47'1 6.4
2018-Feb-19 08:56N 49°33' W 000°46'3 6.6
2018-Feb-19 08:30N 49°32' W 000°42'0 0.4
2018-Feb-19 08:00N 49°33' W 000°42'2 3.2
2018-Feb-19 07:30N 49°32' W 000°40'1 2.0
2018-Feb-19 07:00N 49°32' W 000°38'0 0.4
2018-Feb-19 06:30N 49°32' W 000°39'0 0.9
2018-Feb-19 06:00N 49°32' W 000°38'1 1.6
2018-Feb-19 05:30N 49°33' W 000°39'1 1.1
2018-Feb-19 05:00N 49°32' W 000°39'0 0.8
2018-Feb-19 04:30N 49°32' W 000°39'1 1.1
2018-Feb-19 04:00N 49°32' W 000°38'0 1.0
2018-Feb-19 03:31N 49°32' W 000°38'0 0.6
2018-Feb-19 03:00N 49°33' W 000°39'3 6.4
2018-Feb-19 02:30N 49°33' W 000°44'4 7.3
2018-Feb-19 02:00N 49°33' W 000°49'  
2018-Feb-15 18:13N 49°27' W 000°47'1 2.4
2018-Feb-15 17:48N 49°27' W 000°46'1 3.1
2018-Feb-15 17:27N 49°27' W 000°47'1 2.6
2018-Feb-15 17:00N 49°26' W 000°46'1 2.0
2018-Feb-15 16:30N 49°27' W 000°47'1 1.7
2018-Feb-15 15:59N 49°27' W 000°46'1 1.2
2018-Feb-15 15:30N 49°27' W 000°47'0 0.4
2018-Feb-15 14:59N 49°27' W 000°47'0 0.3
2018-Feb-15 14:29N 49°27' W 000°46'2 3.2
2018-Feb-15 14:00N 49°28' W 000°47'2 3.4
2018-Feb-15 13:30N 49°29' W 000°49'1 1.0
2018-Feb-15 12:59N 49°29' W 000°50'2 2.3
2018-Feb-15 12:17N 49°28' W 000°50'2 5.4
2018-Feb-15 11:59N 49°28' W 000°52'16 0.3
2018-Feb-13 08:33N 49°35' W 001°15'15 1.0
2018-Feb-12 17:21N 49°33' W 000°52'2 6.8
2018-Feb-12 16:59N 49°33' W 000°48'3 5.8
2018-Feb-12 16:30N 49°33' W 000°44'3 5.1
2018-Feb-12 16:00N 49°32' W 000°40'2 3.0
2018-Feb-12 15:30N 49°32' W 000°37'0 0.5
2018-Feb-12 15:01N 49°32' W 000°38'1 1.3
2018-Feb-12 14:30N 49°32' W 000°38'0 0.6
2018-Feb-12 14:00N 49°33' W 000°39'1 1.3
2018-Feb-12 13:31N 49°32' W 000°38'0 0.6
2018-Feb-12 13:01N 49°32' W 000°37'1 2.1
2018-Feb-12 12:30N 49°32' W 000°39'  
Track history (hours):
 
Tides and Currents Weather Stations Pressure Air Temp Water Temp Dewpoint Dewpoint Depression Visibility Wind Speed Wind Dir Waves Ship Positions

F/V Sextant

Last reported at 2018-Feb-21 10:01 UTC. Time now 2018-Feb-22 02:50 UTC.
Position N 49°32' W 000°48'.

Length 15 m; draft 3 m.

Type: Fishing. MMSI: 228919000.

Date/timePositionNaut miles runAvg speedWind from/ knotsBaromVisibWave heightAir tempDewpointWater temp
2018-Feb-21 10:01N 49°32' W 000°48'0 4.6
2018-Feb-21 10:00N 49°32' W 000°48'2 3.2
2018-Feb-21 09:29N 49°32' W 000°45'2 3.3
2018-Feb-21 09:00N 49°33' W 000°43'1 2.2
2018-Feb-21 08:30N 49°33' W 000°41'1 1.5
2018-Feb-21 08:00N 49°32' W 000°42'1 1.4
2018-Feb-21 07:30N 49°33' W 000°41'0 0.7
2018-Feb-21 07:00N 49°33' W 000°42'0 0.5
2018-Feb-21 06:30N 49°33' W 000°41'0 0.9
2018-Feb-21 06:01N 49°33' W 000°41'1 2.3
2018-Feb-21 05:30N 49°33' W 000°43'1 2.3
2018-Feb-21 05:00N 49°33' W 000°41'2 3.2
2018-Feb-21 04:31N 49°33' W 000°43'3 0.2
2018-Feb-20 09:55N 49°33' W 000°48'2 5.0
2018-Feb-20 09:31N 49°32' W 000°45'2 3.2
2018-Feb-20 09:00N 49°32' W 000°42'1 2.3
2018-Feb-20 08:31N 49°33' W 000°40'1 1.2
2018-Feb-20 08:00N 49°32' W 000°41'1 1.3
2018-Feb-20 07:30N 49°33' W 000°42'1 2.3
2018-Feb-20 07:00N 49°33' W 000°40'1 1.3
2018-Feb-20 06:30N 49°33' W 000°41'0 0.4
2018-Feb-20 06:00N 49°33' W 000°41'0 0.4
2018-Feb-20 05:30N 49°33' W 000°41'0 0.8
2018-Feb-20 04:59N 49°32' W 000°41'1 1.4
2018-Feb-20 04:30N 49°33' W 000°42'0 0.7
2018-Feb-20 04:00N 49°33' W 000°41'2 4.4
2018-Feb-20 03:30N 49°33' W 000°45'2 0.1
2018-Feb-19 09:02N 49°33' W 000°47'1 6.4
2018-Feb-19 08:56N 49°33' W 000°46'3 6.6
2018-Feb-19 08:30N 49°32' W 000°42'0 0.4
2018-Feb-19 08:00N 49°33' W 000°42'2 3.2
2018-Feb-19 07:30N 49°32' W 000°40'1 2.0
2018-Feb-19 07:00N 49°32' W 000°38'0 0.4
2018-Feb-19 06:30N 49°32' W 000°39'0 0.9
2018-Feb-19 06:00N 49°32' W 000°38'1 1.6
2018-Feb-19 05:30N 49°33' W 000°39'1 1.1
2018-Feb-19 05:00N 49°32' W 000°39'0 0.8
2018-Feb-19 04:30N 49°32' W 000°39'1 1.1
2018-Feb-19 04:00N 49°32' W 000°38'0 1.0
2018-Feb-19 03:31N 49°32' W 000°38'0 0.6
2018-Feb-19 03:00N 49°33' W 000°39'3 6.4
2018-Feb-19 02:30N 49°33' W 000°44'4 7.3
2018-Feb-19 02:00N 49°33' W 000°49'  
2018-Feb-15 18:13N 49°27' W 000°47'1 2.4
2018-Feb-15 17:48N 49°27' W 000°46'1 3.1
2018-Feb-15 17:27N 49°27' W 000°47'1 2.6
2018-Feb-15 17:00N 49°26' W 000°46'1 2.0
2018-Feb-15 16:30N 49°27' W 000°47'1 1.7
2018-Feb-15 15:59N 49°27' W 000°46'1 1.2
2018-Feb-15 15:30N 49°27' W 000°47'0 0.4
2018-Feb-15 14:59N 49°27' W 000°47'0 0.3
2018-Feb-15 14:29N 49°27' W 000°46'2 3.2
2018-Feb-15 14:00N 49°28' W 000°47'2 3.4
2018-Feb-15 13:30N 49°29' W 000°49'1 1.0
2018-Feb-15 12:59N 49°29' W 000°50'2 2.3
2018-Feb-15 12:17N 49°28' W 000°50'2 5.4
2018-Feb-15 11:59N 49°28' W 000°52'16 0.3
2018-Feb-13 08:33N 49°35' W 001°15'15 1.0
2018-Feb-12 17:21N 49°33' W 000°52'2 6.8
2018-Feb-12 16:59N 49°33' W 000°48'3 5.8
2018-Feb-12 16:30N 49°33' W 000°44'3 5.1
2018-Feb-12 16:00N 49°32' W 000°40'2 3.0
2018-Feb-12 15:30N 49°32' W 000°37'0 0.5
2018-Feb-12 15:01N 49°32' W 000°38'1 1.3
2018-Feb-12 14:30N 49°32' W 000°38'0 0.6
2018-Feb-12 14:00N 49°33' W 000°39'1 1.3
2018-Feb-12 13:31N 49°32' W 000°38'0 0.6
2018-Feb-12 13:01N 49°32' W 000°37'1 2.1
2018-Feb-12 12:30N 49°32' W 000°39'  

Dump ship's entire track history